sensor_id;sensor_type;location;lat;lon;timestamp;pressure;altitude;pressure_sealevel;temperature;humidity
72925;BME280;61070;50.794;7.054;2023-03-23T00:00:55;99771.72;;;13.16;76.12
72925;BME280;61070;50.794;7.054;2023-03-23T00:03:21;99791.75;;;13.26;75.69
72925;BME280;61070;50.794;7.054;2023-03-23T00:05:47;99784.06;;;13.17;76.18
72925;BME280;61070;50.794;7.054;2023-03-23T00:08:17;99803.19;;;13.28;76.09
72925;BME280;61070;50.794;7.054;2023-03-23T00:10:42;99788.69;;;13.36;75.26
72925;BME280;61070;50.794;7.054;2023-03-23T00:13:07;99793.94;;;13.38;75.40
72925;BME280;61070;50.794;7.054;2023-03-23T00:15:33;99769.75;;;13.21;76.79
72925;BME280;61070;50.794;7.054;2023-03-23T00:18:00;99775.88;;;13.23;76.60
72925;BME280;61070;50.794;7.054;2023-03-23T00:20:30;99766.97;;;13.24;76.90
72925;BME280;61070;50.794;7.054;2023-03-23T00:22:55;99758.25;;;13.20;77.12
72925;BME280;61070;50.794;7.054;2023-03-23T00:25:25;99771.03;;;13.34;76.63
72925;BME280;61070;50.794;7.054;2023-03-23T00:27:50;99775.66;;;13.29;76.75
72925;BME280;61070;50.794;7.054;2023-03-23T00:30:16;99772.88;;;13.32;76.89
72925;BME280;61070;50.794;7.054;2023-03-23T00:32:41;99762.94;;;13.37;76.80
72925;BME280;61070;50.794;7.054;2023-03-23T00:35:06;99768.13;;;13.17;77.92
72925;BME280;61070;50.794;7.054;2023-03-23T00:37:33;99769.69;;;13.22;77.88
72925;BME280;61070;50.794;7.054;2023-03-23T00:40:00;99775.31;;;13.13;78.14
72925;BME280;61070;50.794;7.054;2023-03-23T00:42:26;99774.47;;;13.12;78.28
72925;BME280;61070;50.794;7.054;2023-03-23T00:44:53;99775.78;;;13.26;77.52
72925;BME280;61070;50.794;7.054;2023-03-23T00:47:25;99781.41;;;13.17;77.69
72925;BME280;61070;50.794;7.054;2023-03-23T00:49:50;99772.97;;;13.05;78.24
72925;BME280;61070;50.794;7.054;2023-03-23T00:52:17;99777.13;;;13.12;77.68
72925;BME280;61070;50.794;7.054;2023-03-23T00:54:42;99780.03;;;13.06;78.14
72925;BME280;61070;50.794;7.054;2023-03-23T00:57:08;99770.53;;;12.99;78.21
72925;BME280;61070;50.794;7.054;2023-03-23T00:59:35;99772.03;;;13.06;77.79
72925;BME280;61070;50.794;7.054;2023-03-23T01:02:00;99759.06;;;13.22;77.03
72925;BME280;61070;50.794;7.054;2023-03-23T01:04:27;99760.09;;;13.18;77.69
72925;BME280;61070;50.794;7.054;2023-03-23T01:06:53;99758.31;;;13.19;77.31
72925;BME280;61070;50.794;7.054;2023-03-23T01:09:19;99756.22;;;13.03;78.40
72925;BME280;61070;50.794;7.054;2023-03-23T01:11:47;99739.09;;;13.10;77.70
72925;BME280;61070;50.794;7.054;2023-03-23T01:14:14;99749.97;;;13.04;78.68
72925;BME280;61070;50.794;7.054;2023-03-23T01:16:40;99738.53;;;13.02;78.86
72925;BME280;61070;50.794;7.054;2023-03-23T01:19:06;99740.06;;;13.08;78.06
72925;BME280;61070;50.794;7.054;2023-03-23T01:21:31;99741.31;;;13.23;77.15
72925;BME280;61070;50.794;7.054;2023-03-23T01:23:57;99730.25;;;13.10;78.06
72925;BME280;61070;50.794;7.054;2023-03-23T01:26:25;99724.88;;;13.11;77.61
72925;BME280;61070;50.794;7.054;2023-03-23T01:28:52;99721.47;;;13.08;77.78
72925;BME280;61070;50.794;7.054;2023-03-23T01:31:20;99732.84;;;13.11;77.74
72925;BME280;61070;50.794;7.054;2023-03-23T01:33:46;99725.91;;;13.07;77.75
72925;BME280;61070;50.794;7.054;2023-03-23T01:36:14;99720.31;;;13.15;78.09
72925;BME280;61070;50.794;7.054;2023-03-23T01:38:42;99714.06;;;12.93;78.57
72925;BME280;61070;50.794;7.054;2023-03-23T01:41:07;99720.94;;;12.98;78.78
72925;BME280;61070;50.794;7.054;2023-03-23T01:43:32;99723.38;;;13.04;77.98
72925;BME280;61070;50.794;7.054;2023-03-23T01:45:58;99723.19;;;13.09;77.75
72925;BME280;61070;50.794;7.054;2023-03-23T01:48:26;99731.44;;;13.01;78.29
72925;BME280;61070;50.794;7.054;2023-03-23T01:51:10;99727.59;;;13.10;77.77
72925;BME280;61070;50.794;7.054;2023-03-23T01:53:46;99741.00;;;13.07;78.50
72925;BME280;61070;50.794;7.054;2023-03-23T01:56:16;99737.34;;;12.86;80.90
72925;BME280;61070;50.794;7.054;2023-03-23T01:58:44;99741.41;;;12.96;80.13
72925;BME280;61070;50.794;7.054;2023-03-23T02:01:11;99740.66;;;12.93;81.67
72925;BME280;61070;50.794;7.054;2023-03-23T02:03:41;99736.44;;;12.62;84.48
72925;BME280;61070;50.794;7.054;2023-03-23T02:06:08;99738.94;;;12.67;83.51
72925;BME280;61070;50.794;7.054;2023-03-23T02:08:35;99750.53;;;12.64;83.70
72925;BME280;61070;50.794;7.054;2023-03-23T02:11:00;99734.84;;;12.57;83.55
72925;BME280;61070;50.794;7.054;2023-03-23T02:13:27;99748.88;;;12.62;83.22
72925;BME280;61070;50.794;7.054;2023-03-23T02:21:51;99725.59;;;12.43;83.91
72925;BME280;61070;50.794;7.054;2023-03-23T02:27:06;99715.84;;;12.44;83.72
72925;BME280;61070;50.794;7.054;2023-03-23T02:32:10;99718.06;;;12.31;85.82
72925;BME280;61070;50.794;7.054;2023-03-23T02:34:58;99711.94;;;12.29;85.96
72925;BME280;61070;50.794;7.054;2023-03-23T02:37:31;99686.31;;;12.28;85.83
72925;BME280;61070;50.794;7.054;2023-03-23T02:40:10;99687.28;;;12.26;85.96
72925;BME280;61070;50.794;7.054;2023-03-23T02:42:42;99681.00;;;12.28;86.55
72925;BME280;61070;50.794;7.054;2023-03-23T02:45:11;99685.69;;;12.20;87.50
72925;BME280;61070;50.794;7.054;2023-03-23T02:47:39;99693.97;;;12.11;88.33
72925;BME280;61070;50.794;7.054;2023-03-23T02:50:10;99682.50;;;12.10;88.31
72925;BME280;61070;50.794;7.054;2023-03-23T02:52:39;99672.97;;;12.05;88.94
72925;BME280;61070;50.794;7.054;2023-03-23T02:55:07;99671.34;;;12.01;89.38
72925;BME280;61070;50.794;7.054;2023-03-23T02:57:33;99677.63;;;11.98;89.19
72925;BME280;61070;50.794;7.054;2023-03-23T02:59:58;99693.03;;;12.13;88.51
72925;BME280;61070;50.794;7.054;2023-03-23T03:02:31;99679.44;;;11.96;89.31
72925;BME280;61070;50.794;7.054;2023-03-23T03:05:01;99687.41;;;11.96;89.33
72925;BME280;61070;50.794;7.054;2023-03-23T03:07:33;99689.94;;;12.01;89.38
72925;BME280;61070;50.794;7.054;2023-03-23T03:10:09;99685.63;;;11.97;89.71
72925;BME280;61070;50.794;7.054;2023-03-23T03:12:46;99687.53;;;11.93;90.11
72925;BME280;61070;50.794;7.054;2023-03-23T03:17:59;99665.69;;;11.85;91.31
72925;BME280;61070;50.794;7.054;2023-03-23T03:20:28;99651.06;;;11.72;91.91
72925;BME280;61070;50.794;7.054;2023-03-23T03:22:56;99665.09;;;11.75;91.44
72925;BME280;61070;50.794;7.054;2023-03-23T03:25:23;99668.09;;;11.64;92.51
72925;BME280;61070;50.794;7.054;2023-03-23T03:27:49;99677.03;;;11.62;92.95
72925;BME280;61070;50.794;7.054;2023-03-23T03:30:21;99692.84;;;11.65;92.33
72925;BME280;61070;50.794;7.054;2023-03-23T03:32:51;99692.88;;;11.63;92.57
72925;BME280;61070;50.794;7.054;2023-03-23T03:35:21;99692.19;;;11.58;93.29
72925;BME280;61070;50.794;7.054;2023-03-23T03:37:47;99695.00;;;11.52;93.88
72925;BME280;61070;50.794;7.054;2023-03-23T03:40:16;99695.84;;;11.54;93.67
72925;BME280;61070;50.794;7.054;2023-03-23T03:42:44;99708.22;;;11.54;93.69
72925;BME280;61070;50.794;7.054;2023-03-23T03:45:14;99709.78;;;11.61;93.17
72925;BME280;61070;50.794;7.054;2023-03-23T03:47:39;99713.34;;;11.60;93.39
72925;BME280;61070;50.794;7.054;2023-03-23T03:50:05;99713.25;;;11.63;93.11
72925;BME280;61070;50.794;7.054;2023-03-23T03:52:32;99718.53;;;11.63;93.22
72925;BME280;61070;50.794;7.054;2023-03-23T03:54:57;99715.19;;;11.58;93.87
72925;BME280;61070;50.794;7.054;2023-03-23T03:57:23;99717.91;;;11.55;94.19
72925;BME280;61070;50.794;7.054;2023-03-23T03:59:49;99716.88;;;11.60;93.96
72925;BME280;61070;50.794;7.054;2023-03-23T04:02:14;99709.66;;;11.64;94.07
72925;BME280;61070;50.794;7.054;2023-03-23T04:04:42;99712.53;;;11.58;94.50
72925;BME280;61070;50.794;7.054;2023-03-23T04:07:08;99704.75;;;11.52;94.82
72925;BME280;61070;50.794;7.054;2023-03-23T04:09:36;99683.66;;;11.49;95.29
72925;BME280;61070;50.794;7.054;2023-03-23T04:12:02;99700.25;;;11.55;95.08
72925;BME280;61070;50.794;7.054;2023-03-23T04:14:27;99703.03;;;11.51;95.13
72925;BME280;61070;50.794;7.054;2023-03-23T04:16:53;99705.56;;;11.54;95.14
72925;BME280;61070;50.794;7.054;2023-03-23T04:19:25;99701.25;;;11.51;95.62
72925;BME280;61070;50.794;7.054;2023-03-23T04:21:53;99710.63;;;11.61;95.20
72925;BME280;61070;50.794;7.054;2023-03-23T04:24:18;99687.75;;;11.59;94.79
72925;BME280;61070;50.794;7.054;2023-03-23T04:26:46;99688.56;;;11.61;94.76
72925;BME280;61070;50.794;7.054;2023-03-23T04:29:11;99701.13;;;11.56;94.88
72925;BME280;61070;50.794;7.054;2023-03-23T04:31:38;99703.84;;;11.53;95.07
72925;BME280;61070;50.794;7.054;2023-03-23T04:34:04;99706.69;;;11.47;95.54
72925;BME280;61070;50.794;7.054;2023-03-23T04:36:29;99718.31;;;11.43;95.69
72925;BME280;61070;50.794;7.054;2023-03-23T04:38:55;99703.31;;;11.42;95.88
72925;BME280;61070;50.794;7.054;2023-03-23T04:41:22;99706.19;;;11.62;94.92
72925;BME280;61070;50.794;7.054;2023-03-23T04:47:02;99714.72;;;11.44;95.95
72925;BME280;61070;50.794;7.054;2023-03-23T04:49:27;99715.66;;;11.43;96.03
72925;BME280;61070;50.794;7.054;2023-03-23T04:51:55;99718.28;;;11.44;96.17
72925;BME280;61070;50.794;7.054;2023-03-23T04:54:21;99715.63;;;11.44;96.56
72925;BME280;61070;50.794;7.054;2023-03-23T04:56:47;99712.13;;;11.42;96.50
72925;BME280;61070;50.794;7.054;2023-03-23T04:59:12;99715.75;;;11.40;96.51
72925;BME280;61070;50.794;7.054;2023-03-23T05:01:38;99713.22;;;11.36;96.98
72925;BME280;61070;50.794;7.054;2023-03-23T05:04:04;99721.34;;;11.30;97.00
72925;BME280;61070;50.794;7.054;2023-03-23T05:06:29;99719.72;;;11.26;97.36
72925;BME280;61070;50.794;7.054;2023-03-23T05:08:54;99720.34;;;11.34;96.82
72925;BME280;61070;50.794;7.054;2023-03-23T05:11:20;99731.22;;;11.25;97.07
72925;BME280;61070;50.794;7.054;2023-03-23T05:13:46;99739.22;;;11.24;97.28
72925;BME280;61070;50.794;7.054;2023-03-23T05:16:11;99733.19;;;11.19;97.56
72925;BME280;61070;50.794;7.054;2023-03-23T05:18:36;99726.94;;;11.21;97.54
72925;BME280;61070;50.794;7.054;2023-03-23T05:21:03;99726.84;;;11.24;97.04
72925;BME280;61070;50.794;7.054;2023-03-23T05:23:29;99727.13;;;11.15;97.65
72925;BME280;61070;50.794;7.054;2023-03-23T05:25:57;99731.66;;;11.12;97.71
72925;BME280;61070;50.794;7.054;2023-03-23T05:28:26;99732.59;;;11.09;97.98
72925;BME280;61070;50.794;7.054;2023-03-23T05:30:51;99730.47;;;11.20;97.44
72925;BME280;61070;50.794;7.054;2023-03-23T05:33:17;99724.25;;;11.23;96.52
72925;BME280;61070;50.794;7.054;2023-03-23T05:35:42;99731.44;;;11.18;97.15
72925;BME280;61070;50.794;7.054;2023-03-23T05:38:08;99733.28;;;11.16;97.33
72925;BME280;61070;50.794;7.054;2023-03-23T05:40:33;99734.09;;;11.18;97.25
72925;BME280;61070;50.794;7.054;2023-03-23T05:42:58;99733.97;;;11.22;96.95
72925;BME280;61070;50.794;7.054;2023-03-23T05:45:24;99740.22;;;11.20;97.23
72925;BME280;61070;50.794;7.054;2023-03-23T05:47:51;99752.34;;;11.28;96.94
72925;BME280;61070;50.794;7.054;2023-03-23T05:50:16;99749.59;;;11.31;96.42
72925;BME280;61070;50.794;7.054;2023-03-23T05:52:42;99738.06;;;11.32;96.18
72925;BME280;61070;50.794;7.054;2023-03-23T05:55:08;99742.28;;;11.40;95.42
72925;BME280;61070;50.794;7.054;2023-03-23T05:57:36;99740.44;;;11.42;95.02
72925;BME280;61070;50.794;7.054;2023-03-23T06:00:03;99737.44;;;11.52;94.21
72925;BME280;61070;50.794;7.054;2023-03-23T06:02:40;99749.13;;;11.47;93.36
72925;BME280;61070;50.794;7.054;2023-03-23T06:05:09;99743.22;;;11.65;91.27
72925;BME280;61070;50.794;7.054;2023-03-23T06:07:35;99755.56;;;11.68;90.56
72925;BME280;61070;50.794;7.054;2023-03-23T06:10:01;99747.63;;;11.66;89.98
72925;BME280;61070;50.794;7.054;2023-03-23T06:12:27;99741.28;;;11.72;89.66
72925;BME280;61070;50.794;7.054;2023-03-23T06:14:52;99745.94;;;11.63;89.63
72925;BME280;61070;50.794;7.054;2023-03-23T06:17:18;99737.84;;;11.68;89.14
72925;BME280;61070;50.794;7.054;2023-03-23T06:19:44;99737.50;;;11.79;88.69
72925;BME280;61070;50.794;7.054;2023-03-23T06:22:12;99733.97;;;11.80;87.95
72925;BME280;61070;50.794;7.054;2023-03-23T06:24:37;99729.41;;;11.83;87.21
72925;BME280;61070;50.794;7.054;2023-03-23T06:27:03;99745.19;;;11.88;86.54
72925;BME280;61070;50.794;7.054;2023-03-23T06:29:28;99746.56;;;12.00;86.08
72925;BME280;61070;50.794;7.054;2023-03-23T06:31:56;99748.56;;;12.19;83.66
72925;BME280;61070;50.794;7.054;2023-03-23T06:34:23;99760.31;;;12.12;84.42
72925;BME280;61070;50.794;7.054;2023-03-23T06:36:49;99761.09;;;12.16;84.21
72925;BME280;61070;50.794;7.054;2023-03-23T06:39:14;99751.94;;;12.24;83.01
72925;BME280;61070;50.794;7.054;2023-03-23T06:41:40;99749.13;;;12.29;82.52
72925;BME280;61070;50.794;7.054;2023-03-23T06:44:06;99759.38;;;12.40;81.71
72925;BME280;61070;50.794;7.054;2023-03-23T06:46:31;99772.53;;;12.43;81.67
72925;BME280;61070;50.794;7.054;2023-03-23T06:48:57;99779.53;;;12.45;82.19
72925;BME280;61070;50.794;7.054;2023-03-23T06:51:23;99786.25;;;12.56;81.29
72925;BME280;61070;50.794;7.054;2023-03-23T06:53:48;99778.28;;;12.56;81.17
72925;BME280;61070;50.794;7.054;2023-03-23T06:56:14;99784.09;;;12.67;81.33
72925;BME280;61070;50.794;7.054;2023-03-23T06:58:40;99777.16;;;12.63;81.39
72925;BME280;61070;50.794;7.054;2023-03-23T07:01:07;99780.63;;;12.65;81.32
72925;BME280;61070;50.794;7.054;2023-03-23T07:03:33;99783.91;;;12.73;80.17
72925;BME280;61070;50.794;7.054;2023-03-23T07:05:59;99780.38;;;12.72;80.10
72925;BME280;61070;50.794;7.054;2023-03-23T07:08:24;99791.16;;;12.68;81.08
72925;BME280;61070;50.794;7.054;2023-03-23T07:10:52;99790.25;;;12.69;80.61
72925;BME280;61070;50.794;7.054;2023-03-23T07:13:18;99788.97;;;12.79;79.22
72925;BME280;61070;50.794;7.054;2023-03-23T07:15:44;99788.03;;;12.81;79.68
72925;BME280;61070;50.794;7.054;2023-03-23T07:18:11;99792.50;;;12.79;80.60
72925;BME280;61070;50.794;7.054;2023-03-23T07:20:36;99792.28;;;12.86;80.05
72925;BME280;61070;50.794;7.054;2023-03-23T07:23:04;99786.06;;;12.87;80.25
72925;BME280;61070;50.794;7.054;2023-03-23T07:25:33;99783.06;;;12.96;79.30
72925;BME280;61070;50.794;7.054;2023-03-23T07:28:02;99781.81;;;13.06;79.16
72925;BME280;61070;50.794;7.054;2023-03-23T07:30:28;99790.81;;;13.02;79.54
72925;BME280;61070;50.794;7.054;2023-03-23T07:32:55;99795.03;;;13.07;78.05
72925;BME280;61070;50.794;7.054;2023-03-23T07:35:21;99779.09;;;13.07;78.37
72925;BME280;61070;50.794;7.054;2023-03-23T07:37:46;99780.88;;;13.07;78.06
72925;BME280;61070;50.794;7.054;2023-03-23T07:40:14;99775.22;;;13.16;77.34
72925;BME280;61070;50.794;7.054;2023-03-23T07:42:41;99777.81;;;13.19;77.08
72925;BME280;61070;50.794;7.054;2023-03-23T07:45:08;99779.59;;;13.19;76.55
72925;BME280;61070;50.794;7.054;2023-03-23T07:47:33;99780.19;;;13.27;75.34
72925;BME280;61070;50.794;7.054;2023-03-23T07:49:59;99781.06;;;13.27;75.36
72925;BME280;61070;50.794;7.054;2023-03-23T07:52:24;99776.88;;;13.44;72.71
72925;BME280;61070;50.794;7.054;2023-03-23T07:54:49;99776.75;;;13.47;73.34
72925;BME280;61070;50.794;7.054;2023-03-23T07:57:16;99777.59;;;13.47;74.11
72925;BME280;61070;50.794;7.054;2023-03-23T07:59:41;99770.41;;;13.51;72.62
72925;BME280;61070;50.794;7.054;2023-03-23T08:02:08;99775.16;;;13.64;72.06
72925;BME280;61070;50.794;7.054;2023-03-23T08:04:34;99773.19;;;13.69;72.11
72925;BME280;61070;50.794;7.054;2023-03-23T08:07:02;99779.75;;;13.61;72.91
72925;BME280;61070;50.794;7.054;2023-03-23T08:09:27;99779.13;;;13.76;71.77
72925;BME280;61070;50.794;7.054;2023-03-23T08:11:53;99785.19;;;13.80;71.67
72925;BME280;61070;50.794;7.054;2023-03-23T08:14:18;99783.41;;;13.80;71.43
72925;BME280;61070;50.794;7.054;2023-03-23T08:16:44;99775.31;;;13.83;70.93
72925;BME280;61070;50.794;7.054;2023-03-23T08:19:09;99773.00;;;13.74;71.60
72925;BME280;61070;50.794;7.054;2023-03-23T08:21:34;99778.78;;;13.85;71.13
72925;BME280;61070;50.794;7.054;2023-03-23T08:24:00;99790.16;;;13.89;70.92
72925;BME280;61070;50.794;7.054;2023-03-23T08:26:26;99791.59;;;13.97;70.22
72925;BME280;61070;50.794;7.054;2023-03-23T08:28:52;99785.28;;;14.00;69.83
72925;BME280;61070;50.794;7.054;2023-03-23T08:31:18;99779.66;;;13.86;69.80
72925;BME280;61070;50.794;7.054;2023-03-23T08:33:43;99793.63;;;13.91;70.67
72925;BME280;61070;50.794;7.054;2023-03-23T08:36:09;99788.44;;;13.88;70.76
72925;BME280;61070;50.794;7.054;2023-03-23T08:38:34;99789.09;;;13.93;71.77
72925;BME280;61070;50.794;7.054;2023-03-23T08:41:03;99782.31;;;14.08;69.98
72925;BME280;61070;50.794;7.054;2023-03-23T08:43:30;99779.50;;;14.11;69.63
72925;BME280;61070;50.794;7.054;2023-03-23T08:45:55;99790.66;;;14.20;69.22
72925;BME280;61070;50.794;7.054;2023-03-23T08:48:21;99780.00;;;14.20;69.02
72925;BME280;61070;50.794;7.054;2023-03-23T08:50:48;99773.66;;;14.23;68.78
72925;BME280;61070;50.794;7.054;2023-03-23T08:53:14;99789.47;;;14.27;68.54
72925;BME280;61070;50.794;7.054;2023-03-23T08:55:39;99791.00;;;14.33;68.07
72925;BME280;61070;50.794;7.054;2023-03-23T08:58:05;99784.59;;;14.37;67.90
72925;BME280;61070;50.794;7.054;2023-03-23T09:00:30;99799.88;;;14.34;68.10
72925;BME280;61070;50.794;7.054;2023-03-23T09:02:56;99792.34;;;14.43;67.74
72925;BME280;61070;50.794;7.054;2023-03-23T09:05:24;99788.78;;;14.44;68.37
72925;BME280;61070;50.794;7.054;2023-03-23T09:07:51;99803.66;;;14.50;67.64
72925;BME280;61070;50.794;7.054;2023-03-23T09:10:17;99812.63;;;14.47;67.92
72925;BME280;61070;50.794;7.054;2023-03-23T09:12:43;99809.25;;;14.64;67.59
72925;BME280;61070;50.794;7.054;2023-03-23T09:15:11;99812.25;;;14.56;67.96
72925;BME280;61070;50.794;7.054;2023-03-23T09:17:39;99812.59;;;14.69;67.22
72925;BME280;61070;50.794;7.054;2023-03-23T09:20:06;99812.25;;;14.77;66.76
72925;BME280;61070;50.794;7.054;2023-03-23T09:22:39;99826.91;;;14.67;67.77
72925;BME280;61070;50.794;7.054;2023-03-23T09:25:06;99838.31;;;14.70;67.80
72925;BME280;61070;50.794;7.054;2023-03-23T09:27:32;99818.19;;;14.63;66.45
72925;BME280;61070;50.794;7.054;2023-03-23T09:29:57;99818.19;;;14.63;66.29
72925;BME280;61070;50.794;7.054;2023-03-23T09:32:23;99812.47;;;14.52;66.47
72925;BME280;61070;50.794;7.054;2023-03-23T09:34:49;99815.13;;;14.52;65.31
72925;BME280;61070;50.794;7.054;2023-03-23T09:37:14;99796.47;;;14.52;65.19
72925;BME280;61070;50.794;7.054;2023-03-23T09:39:40;99817.66;;;14.55;65.44
72925;BME280;61070;50.794;7.054;2023-03-23T09:42:34;99816.06;;;14.51;65.96
72925;BME280;61070;50.794;7.054;2023-03-23T09:45:19;99820.38;;;14.53;65.94
72925;BME280;61070;50.794;7.054;2023-03-23T09:48:16;99828.16;;;14.58;65.34
72925;BME280;61070;50.794;7.054;2023-03-23T09:50:48;99843.06;;;14.64;65.15
72925;BME280;61070;50.794;7.054;2023-03-23T09:53:26;99846.16;;;14.53;65.56
72925;BME280;61070;50.794;7.054;2023-03-23T09:55:53;99846.59;;;14.42;66.15
72925;BME280;61070;50.794;7.054;2023-03-23T09:58:35;99847.19;;;14.50;66.71
72925;BME280;61070;50.794;7.054;2023-03-23T10:01:12;99845.16;;;14.55;67.28
72925;BME280;61070;50.794;7.054;2023-03-23T10:03:41;99838.53;;;14.66;67.88
72925;BME280;61070;50.794;7.054;2023-03-23T10:06:10;99834.47;;;14.77;68.25
72925;BME280;61070;50.794;7.054;2023-03-23T10:08:49;99831.59;;;14.82;68.47
72925;BME280;61070;50.794;7.054;2023-03-23T10:11:30;99826.47;;;14.77;68.25
72925;BME280;61070;50.794;7.054;2023-03-23T10:14:19;99832.59;;;15.00;68.36
72925;BME280;61070;50.794;7.054;2023-03-23T10:17:13;99830.25;;;15.12;68.18
72925;BME280;61070;50.794;7.054;2023-03-23T10:22:35;99836.19;;;14.99;68.38
72925;BME280;61070;50.794;7.054;2023-03-23T10:27:44;99833.22;;;14.86;69.56
72925;BME280;61070;50.794;7.054;2023-03-23T10:32:53;99841.38;;;14.81;69.80
72925;BME280;61070;50.794;7.054;2023-03-23T10:35:32;99851.22;;;14.59;69.92
72925;BME280;61070;50.794;7.054;2023-03-23T10:38:06;99851.22;;;14.59;70.74
72925;BME280;61070;50.794;7.054;2023-03-23T10:40:43;99858.25;;;14.62;71.06
72925;BME280;61070;50.794;7.054;2023-03-23T10:43:10;99840.72;;;14.76;70.79
72925;BME280;61070;50.794;7.054;2023-03-23T10:45:36;99843.97;;;14.83;71.20
72925;BME280;61070;50.794;7.054;2023-03-23T10:48:25;99845.38;;;14.92;70.15
72925;BME280;61070;50.794;7.054;2023-03-23T10:50:55;99846.00;;;14.78;70.60
72925;BME280;61070;50.794;7.054;2023-03-23T10:53:39;99855.53;;;15.04;70.16
72925;BME280;61070;50.794;7.054;2023-03-23T10:56:21;99851.66;;;15.31;69.65
72925;BME280;61070;50.794;7.054;2023-03-23T10:58:47;99849.59;;;15.57;69.91
72925;BME280;61070;50.794;7.054;2023-03-23T11:01:12;99846.06;;;15.56;68.94
72925;BME280;61070;50.794;7.054;2023-03-23T11:03:47;99847.72;;;15.59;68.74
72925;BME280;61070;50.794;7.054;2023-03-23T11:06:30;99859.63;;;15.52;69.35
72925;BME280;61070;50.794;7.054;2023-03-23T11:09:03;99852.81;;;15.65;68.65
72925;BME280;61070;50.794;7.054;2023-03-23T11:11:38;99840.69;;;15.37;69.42
72925;BME280;61070;50.794;7.054;2023-03-23T11:14:19;99853.31;;;15.34;69.74
72925;BME280;61070;50.794;7.054;2023-03-23T11:16:50;99848.69;;;15.37;69.79
72925;BME280;61070;50.794;7.054;2023-03-23T11:19:25;99844.34;;;15.35;70.47
72925;BME280;61070;50.794;7.054;2023-03-23T11:21:53;99848.31;;;15.26;70.03
72925;BME280;61070;50.794;7.054;2023-03-23T11:24:22;99849.25;;;15.25;70.62
72925;BME280;61070;50.794;7.054;2023-03-23T11:26:49;99843.13;;;15.23;71.28
72925;BME280;61070;50.794;7.054;2023-03-23T11:29:21;99844.84;;;15.24;70.24
72925;BME280;61070;50.794;7.054;2023-03-23T11:31:50;99848.84;;;15.14;70.58
72925;BME280;61070;50.794;7.054;2023-03-23T11:37:09;99835.38;;;15.17;70.49
72925;BME280;61070;50.794;7.054;2023-03-23T11:39:46;99830.94;;;15.18;70.35
72925;BME280;61070;50.794;7.054;2023-03-23T11:42:19;99827.50;;;15.14;69.42
72925;BME280;61070;50.794;7.054;2023-03-23T11:44:44;99822.53;;;15.46;69.23
72925;BME280;61070;50.794;7.054;2023-03-23T11:50:20;99831.34;;;16.04;67.05
72925;BME280;61070;50.794;7.054;2023-03-23T11:55:35;99832.81;;;15.92;66.73
72925;BME280;61070;50.794;7.054;2023-03-23T11:58:09;99844.16;;;15.97;67.71
72925;BME280;61070;50.794;7.054;2023-03-23T12:00:36;99843.47;;;15.73;67.29
72925;BME280;61070;50.794;7.054;2023-03-23T12:03:12;99846.91;;;15.77;67.80
72925;BME280;61070;50.794;7.054;2023-03-23T12:08:30;99837.22;;;15.93;66.81
72925;BME280;61070;50.794;7.054;2023-03-23T12:16:41;99826.66;;;16.63;63.59
72925;BME280;61070;50.794;7.054;2023-03-23T12:19:17;99831.28;;;16.59;62.69
72925;BME280;61070;50.794;7.054;2023-03-23T12:21:56;99827.75;;;16.58;63.02
72925;BME280;61070;50.794;7.054;2023-03-23T12:41:18;99830.50;;;16.57;62.14
72925;BME280;61070;50.794;7.054;2023-03-23T12:43:58;99836.06;;;16.52;62.05
72925;BME280;61070;50.794;7.054;2023-03-23T12:46:31;99825.03;;;16.24;63.84
72925;BME280;61070;50.794;7.054;2023-03-23T12:49:05;99831.78;;;16.14;63.21
72925;BME280;61070;50.794;7.054;2023-03-23T12:51:36;99824.72;;;15.94;63.58
72925;BME280;61070;50.794;7.054;2023-03-23T12:57:21;99823.41;;;16.02;63.54
72925;BME280;61070;50.794;7.054;2023-03-23T13:00:02;99820.47;;;16.09;64.35
72925;BME280;61070;50.794;7.054;2023-03-23T13:02:43;99821.53;;;16.05;64.46
72925;BME280;61070;50.794;7.054;2023-03-23T13:08:04;99841.84;;;16.09;64.08
72925;BME280;61070;50.794;7.054;2023-03-23T13:10:42;99841.84;;;16.09;64.45
72925;BME280;61070;50.794;7.054;2023-03-23T13:13:23;99842.66;;;16.28;64.30
72925;BME280;61070;50.794;7.054;2023-03-23T13:16:25;99825.88;;;16.43;63.02
72925;BME280;61070;50.794;7.054;2023-03-23T13:21:32;99832.75;;;17.01;61.61
72925;BME280;61070;50.794;7.054;2023-03-23T13:24:05;99821.88;;;16.86;61.06
72925;BME280;61070;50.794;7.054;2023-03-23T13:26:31;99810.88;;;16.75;61.15
72925;BME280;61070;50.794;7.054;2023-03-23T13:29:10;99804.97;;;16.86;61.27
72925;BME280;61070;50.794;7.054;2023-03-23T13:31:39;99806.03;;;16.65;61.27
72925;BME280;61070;50.794;7.054;2023-03-23T13:34:24;99809.28;;;16.54;61.57
72925;BME280;61070;50.794;7.054;2023-03-23T13:37:04;99811.88;;;16.55;61.77
72925;BME280;61070;50.794;7.054;2023-03-23T13:39:36;99816.91;;;16.62;61.61
72925;BME280;61070;50.794;7.054;2023-03-23T13:49:57;99804.88;;;16.17;62.25
72925;BME280;61070;50.794;7.054;2023-03-23T13:57:57;99806.63;;;16.18;62.25
72925;BME280;61070;50.794;7.054;2023-03-23T14:08:08;99813.44;;;16.59;62.45
72925;BME280;61070;50.794;7.054;2023-03-23T14:13:04;99816.16;;;16.41;61.57
72925;BME280;61070;50.794;7.054;2023-03-23T14:15:36;99818.78;;;16.42;61.52
72925;BME280;61070;50.794;7.054;2023-03-23T14:18:04;99814.28;;;16.25;62.31
72925;BME280;61070;50.794;7.054;2023-03-23T14:20:36;99822.28;;;16.25;62.53
72925;BME280;61070;50.794;7.054;2023-03-23T14:23:01;99818.25;;;16.17;63.87
72925;BME280;61070;50.794;7.054;2023-03-23T14:25:29;99823.91;;;16.11;64.00
72925;BME280;61070;50.794;7.054;2023-03-23T14:27:56;99815.16;;;16.07;62.90
72925;BME280;61070;50.794;7.054;2023-03-23T14:30:23;99815.63;;;15.98;64.08
72925;BME280;61070;50.794;7.054;2023-03-23T14:32:51;99812.44;;;16.09;63.37
72925;BME280;61070;50.794;7.054;2023-03-23T14:35:29;99805.06;;;16.14;63.37
72925;BME280;61070;50.794;7.054;2023-03-23T14:37:56;99813.16;;;16.12;64.09
72925;BME280;61070;50.794;7.054;2023-03-23T14:40:22;99820.06;;;16.16;63.50